createdAt,value
2023-01-29T00:02:19.040Z,101584.50
2023-01-29T00:04:46.409Z,101584.44
2023-01-29T00:07:13.785Z,101577.44
2023-01-29T00:09:41.395Z,101583.38
2023-01-29T00:12:11.080Z,101580.91
2023-01-29T00:14:38.400Z,101579.25
2023-01-29T00:17:05.806Z,101576.78
2023-01-29T00:19:33.233Z,101577.44
2023-01-29T00:22:00.535Z,101584.28
2023-01-29T00:24:28.084Z,101579.13
2023-01-29T00:26:55.865Z,101578.19
2023-01-29T00:29:23.257Z,101583.44
2023-01-29T00:31:50.905Z,101589.34
2023-01-29T00:34:18.302Z,101585.91
2023-01-29T00:36:46.304Z,101585.97
2023-01-29T00:39:13.659Z,101582.47
2023-01-29T00:41:59.627Z,101587.59
2023-01-29T00:44:46.066Z,101585.84
2023-01-29T00:47:33.615Z,101576.53
2023-01-29T00:50:06.262Z,101597.91
2023-01-29T00:52:36.487Z,101601.34
2023-01-29T00:55:06.263Z,101587.59
2023-01-29T00:57:35.505Z,101592.81
2023-01-29T01:00:06.135Z,101591.22
2023-01-29T01:02:52.439Z,101596.31
2023-01-29T01:05:20.359Z,101592.91
2023-01-29T01:07:51.403Z,101594.72
2023-01-29T01:10:26.791Z,101595.50
2023-01-29T01:13:01.559Z,101601.63
2023-01-29T01:15:32.312Z,101595.63
2023-01-29T01:18:01.202Z,101597.34
2023-01-29T01:20:30.986Z,101597.38
2023-01-29T01:22:58.597Z,101602.41
2023-01-29T01:25:27.095Z,101604.91
2023-01-29T01:27:57.761Z,101605.72
2023-01-29T01:30:27.030Z,101602.09
2023-01-29T01:32:54.636Z,101607.25
2023-01-29T01:35:22.061Z,101604.50
2023-01-29T01:37:49.825Z,101607.03
2023-01-29T01:40:22.716Z,101610.41
2023-01-29T01:43:00.117Z,101609.47
2023-01-29T01:45:46.852Z,101612.88
2023-01-29T01:48:17.492Z,101612.06
2023-01-29T01:50:52.448Z,101603.38
2023-01-29T01:53:30.687Z,101599.13
2023-01-29T01:56:03.927Z,101612.69
2023-01-29T01:58:37.541Z,101612.88
2023-01-29T02:01:07.636Z,101594.00
2023-01-29T02:04:14.302Z,101587.03
2023-01-29T02:07:00.502Z,101591.28
2023-01-29T02:09:55.323Z,101592.97
2023-01-29T02:12:23.220Z,101588.78
2023-01-29T02:14:52.081Z,101602.38
2023-01-29T02:17:20.599Z,101597.34
2023-01-29T02:20:08.373Z,101602.59
2023-01-29T02:22:56.037Z,101614.59
2023-01-29T02:25:40.617Z,101614.63
2023-01-29T02:28:36.055Z,101606.91
2023-01-29T02:31:15.496Z,101621.41
2023-01-29T02:34:21.574Z,101621.38
2023-01-29T02:37:09.408Z,101614.47
2023-01-29T02:39:51.867Z,101617.94
2023-01-29T02:42:31.133Z,101621.22
2023-01-29T02:45:09.998Z,101621.81
2023-01-29T02:47:48.185Z,101619.22
2023-01-29T02:50:26.307Z,101622.47
2023-01-29T02:53:19.918Z,101625.53
2023-01-29T02:55:51.561Z,101622.91
2023-01-29T02:58:38.462Z,101611.91
2023-01-29T03:01:23.156Z,101616.31
2023-01-29T03:03:57.006Z,101618.03
2023-01-29T03:06:53.098Z,101605.28
2023-01-29T03:09:27.512Z,101605.50
2023-01-29T03:12:20.011Z,101615.84
2023-01-29T03:15:10.262Z,101620.16
2023-01-29T03:17:49.205Z,101612.50
2023-01-29T03:20:20.907Z,101619.53
2023-01-29T03:22:56.536Z,101625.69
2023-01-29T03:25:45.550Z,101627.47
2023-01-29T03:28:36.515Z,101628.31
2023-01-29T03:31:26.212Z,101631.75
2023-01-29T03:34:16.400Z,101625.00
2023-01-29T03:37:02.285Z,101627.53
2023-01-29T03:39:30.255Z,101633.59
2023-01-29T03:42:03.869Z,101632.69
2023-01-29T03:44:55.924Z,101636.09
2023-01-29T03:47:44.135Z,101636.91
2023-01-29T03:50:28.596Z,101641.16
2023-01-29T03:53:07.209Z,101647.19
2023-01-29T03:55:43.698Z,101644.72
2023-01-29T03:58:28.199Z,101638.81
2023-01-29T04:01:19.388Z,101638.78
2023-01-29T04:03:56.795Z,101650.75
2023-01-29T04:06:29.822Z,101650.84
2023-01-29T04:09:14.269Z,101644.16
2023-01-29T04:11:47.864Z,101644.22
2023-01-29T04:14:18.138Z,101640.91
2023-01-29T04:16:53.862Z,101643.50
2023-01-29T04:19:28.693Z,101640.91
2023-01-29T04:22:06.066Z,101641.88
2023-01-29T04:24:34.581Z,101642.72
2023-01-29T04:27:25.354Z,101630.84
2023-01-29T04:30:27.552Z,101640.25
2023-01-29T04:33:14.102Z,101632.59
2023-01-29T04:35:54.310Z,101634.34
2023-01-29T04:38:43.310Z,101632.66
2023-01-29T04:41:36.869Z,101631.84
2023-01-29T04:44:21.972Z,101638.69
2023-01-29T04:47:08.063Z,101634.38
2023-01-29T04:49:54.348Z,101639.31
2023-01-29T04:52:33.281Z,101643.56
2023-01-29T04:55:00.684Z,101647.78
2023-01-29T04:57:46.259Z,101641.81
2023-01-29T05:00:30.311Z,101640.91
2023-01-29T05:03:00.637Z,101638.31
2023-01-29T05:05:28.656Z,101642.41
2023-01-29T05:07:57.781Z,101641.53
2023-01-29T05:10:26.224Z,101647.53
2023-01-29T05:13:00.409Z,101642.38
2023-01-29T05:15:40.298Z,101645.75
2023-01-29T05:18:09.031Z,101643.28
2023-01-29T05:20:40.229Z,101644.97
2023-01-29T05:23:16.248Z,101649.22
2023-01-29T05:25:44.560Z,101652.59
2023-01-29T05:28:16.421Z,101649.97
2023-01-29T05:30:46.777Z,101654.19
2023-01-29T05:33:18.056Z,101648.16
2023-01-29T05:35:46.006Z,101655.88
2023-01-29T05:38:13.647Z,101657.53
2023-01-29T05:40:41.455Z,101655.88
2023-01-29T05:43:22.520Z,101660.19
2023-01-29T05:45:54.848Z,101661.78
2023-01-29T05:48:23.048Z,101657.47
2023-01-29T05:50:51.235Z,101664.31
2023-01-29T05:53:19.011Z,101659.19
2023-01-29T05:55:47.876Z,101667.53
2023-01-29T05:58:15.259Z,101669.28
2023-01-29T06:00:42.547Z,101673.63
2023-01-29T06:03:09.936Z,101669.38
2023-01-29T06:05:40.226Z,101675.13
2023-01-29T06:08:08.858Z,101673.47
2023-01-29T06:10:36.208Z,101670.78
2023-01-29T06:13:03.688Z,101680.91
2023-01-29T06:15:31.148Z,101687.63
2023-01-29T06:17:58.433Z,101691.00
2023-01-29T06:20:26.849Z,101690.97
2023-01-29T06:22:54.141Z,101688.44
2023-01-29T06:25:21.354Z,101689.13
2023-01-29T06:27:51.012Z,101692.44
2023-01-29T06:30:18.659Z,101696.72
2023-01-29T06:32:46.008Z,101702.59
2023-01-29T06:35:13.782Z,101702.53
2023-01-29T06:37:41.275Z,101705.81
2023-01-29T06:40:09.060Z,101712.69
2023-01-29T06:42:36.346Z,101715.25
2023-01-29T06:45:04.730Z,101711.63
2023-01-29T06:47:32.103Z,101714.28
2023-01-29T06:50:00.139Z,101721.03
2023-01-29T06:52:29.019Z,101718.50
2023-01-29T06:54:56.701Z,101721.09
2023-01-29T06:57:24.171Z,101719.22
2023-01-29T06:59:51.361Z,101733.00
2023-01-29T07:02:18.655Z,101734.84
2023-01-29T07:04:45.903Z,101733.91
2023-01-29T07:07:13.274Z,101727.78
2023-01-29T07:09:41.993Z,101735.56
2023-01-29T07:12:10.606Z,101737.19
2023-01-29T07:14:37.961Z,101743.13
2023-01-29T07:17:05.169Z,101741.44
2023-01-29T07:19:33.105Z,101737.97
2023-01-29T07:22:02.478Z,101745.78
2023-01-29T07:24:29.999Z,101755.19
2023-01-29T07:26:57.375Z,101762.84
2023-01-29T07:29:24.621Z,101763.72
2023-01-29T07:31:52.020Z,101770.53
2023-01-29T07:34:19.505Z,101777.38
2023-01-29T07:36:46.974Z,101779.97
2023-01-29T07:39:14.270Z,101776.56
2023-01-29T07:41:41.509Z,101774.31
2023-01-29T07:44:16.243Z,101783.03
2023-01-29T07:46:43.627Z,101783.81
2023-01-29T07:49:10.952Z,101793.22
2023-01-29T07:51:38.226Z,101797.59
2023-01-29T07:54:05.678Z,101793.34
2023-01-29T07:56:32.871Z,101801.97
2023-01-29T07:59:00.262Z,101809.59
2023-01-29T08:01:27.594Z,101810.59
2023-01-29T08:03:54.857Z,101807.44
2023-01-29T08:06:22.075Z,101806.13
2023-01-29T08:08:49.456Z,101801.88
2023-01-29T08:11:16.688Z,101801.16
2023-01-29T08:13:44.093Z,101796.94
2023-01-29T08:16:11.572Z,101801.44
2023-01-29T08:18:38.897Z,101807.81
2023-01-29T08:21:06.015Z,101814.94
2023-01-29T08:23:35.091Z,101812.63
2023-01-29T08:26:03.180Z,101813.78
2023-01-29T08:28:30.371Z,101814.06
2023-01-29T08:30:58.803Z,101819.53
2023-01-29T08:33:38.278Z,101820.69
2023-01-29T08:36:07.050Z,101811.59
2023-01-29T08:38:34.312Z,101810.03
2023-01-29T08:41:01.712Z,101810.19
2023-01-29T08:43:29.559Z,101805.06
2023-01-29T08:45:56.836Z,101796.41
2023-01-29T08:48:25.376Z,101801.50
2023-01-29T08:50:52.753Z,101803.09
2023-01-29T08:53:24.359Z,101809.84
2023-01-29T08:55:52.852Z,101806.31
2023-01-29T08:58:20.137Z,101802.63
2023-01-29T09:00:47.345Z,101810.16
2023-01-29T09:03:14.571Z,101809.19
2023-01-29T09:05:41.905Z,101807.47
2023-01-29T09:08:09.688Z,101819.75
2023-01-29T09:10:36.889Z,101814.69
2023-01-29T09:13:04.434Z,101817.84
2023-01-29T09:15:31.621Z,101817.63
2023-01-29T09:18:02.389Z,101823.59
2023-01-29T09:20:29.430Z,101818.94
2023-01-29T09:22:56.837Z,101827.34
2023-01-29T09:25:23.913Z,101823.47
2023-01-29T09:27:51.019Z,101831.63
2023-01-29T09:30:18.957Z,101826.91
2023-01-29T09:32:54.672Z,101830.38
2023-01-29T09:35:22.867Z,101824.50
2023-01-29T09:37:50.677Z,101829.25
2023-01-29T09:40:25.707Z,101827.13
2023-01-29T09:43:00.907Z,101832.44
2023-01-29T09:45:29.560Z,101829.31
2023-01-29T09:47:59.108Z,101827.66
2023-01-29T09:50:29.792Z,101830.09
2023-01-29T09:53:00.200Z,101828.75
2023-01-29T09:55:28.782Z,101829.25
2023-01-29T09:58:11.885Z,101825.88
2023-01-29T10:00:57.390Z,101826.47
2023-01-29T10:03:27.434Z,101819.38
2023-01-29T10:06:03.123Z,101825.50
2023-01-29T10:08:45.666Z,101827.59
2023-01-29T10:11:12.769Z,101815.31
2023-01-29T10:13:57.417Z,101816.47
2023-01-29T10:16:28.582Z,101811.16
2023-01-29T10:18:55.817Z,101804.78
2023-01-29T10:21:41.824Z,101805.41
2023-01-29T10:24:15.056Z,101804.16
2023-01-29T10:26:42.615Z,101799.59
2023-01-29T10:29:14.445Z,101799.97
2023-01-29T10:31:42.509Z,101796.47
2023-01-29T10:34:15.107Z,101796.84
2023-01-29T10:36:46.686Z,101787.66
2023-01-29T10:39:18.704Z,101778.06
2023-01-29T10:41:55.705Z,101773.69
2023-01-29T10:44:26.003Z,101772.06
2023-01-29T10:47:00.250Z,101763.25
2023-01-29T10:49:46.306Z,101762.00
2023-01-29T10:52:13.628Z,101764.38
2023-01-29T10:55:00.315Z,101758.53
2023-01-29T10:57:45.970Z,101760.22
2023-01-29T11:00:19.080Z,101752.34
2023-01-29T11:02:49.069Z,101744.78
2023-01-29T11:05:28.392Z,101737.06
2023-01-29T11:08:05.260Z,101740.22
2023-01-29T11:10:37.327Z,101736.47
2023-01-29T11:13:05.425Z,101727.69
2023-01-29T11:15:34.816Z,101724.56
2023-01-29T11:18:04.049Z,101728.16
2023-01-29T11:20:33.220Z,101706.34
2023-01-29T11:23:00.784Z,101704.25
2023-01-29T11:25:29.898Z,101706.69
2023-01-29T11:28:02.029Z,101704.22
2023-01-29T11:30:31.627Z,101700.06
2023-01-29T11:33:18.254Z,101684.44
2023-01-29T11:35:45.605Z,101683.38
2023-01-29T11:38:16.841Z,101677.38
2023-01-29T11:40:44.778Z,101675.66
2023-01-29T11:43:13.588Z,101669.59
2023-01-29T11:45:40.835Z,101667.03
2023-01-29T11:48:14.832Z,101650.63
2023-01-29T11:50:42.264Z,101649.03
2023-01-29T11:53:35.477Z,101653.47
2023-01-29T11:56:22.976Z,101646.78
2023-01-29T11:58:51.651Z,101643.28
2023-01-29T12:01:24.083Z,101633.94
2023-01-29T12:03:53.783Z,101631.22
2023-01-29T12:06:28.437Z,101634.81
2023-01-29T12:08:57.350Z,101625.19
2023-01-29T12:11:27.333Z,101622.38
2023-01-29T12:13:55.905Z,101625.38
2023-01-29T12:16:29.451Z,101620.59
2023-01-29T12:19:16.991Z,101613.47
2023-01-29T12:21:54.030Z,101616.25
2023-01-29T12:24:27.316Z,101616.31
2023-01-29T12:26:57.781Z,101608.56
2023-01-29T12:29:43.830Z,101613.69
2023-01-29T12:32:27.509Z,101605.94
2023-01-29T12:35:20.812Z,101594.66
2023-01-29T12:37:57.505Z,101590.50
2023-01-29T12:40:29.935Z,101589.19
2023-01-29T12:43:01.479Z,101591.03
2023-01-29T12:45:29.420Z,101598.69
2023-01-29T12:48:00.414Z,101597.25
2023-01-29T12:50:27.477Z,101590.47
2023-01-29T12:53:17.709Z,101592.88
2023-01-29T12:55:47.950Z,101573.94
2023-01-29T12:58:29.072Z,101573.69
2023-01-29T13:00:58.170Z,101572.97
2023-01-29T13:03:25.511Z,101567.91
2023-01-29T13:05:58.132Z,101575.44
2023-01-29T13:08:28.506Z,101573.72
2023-01-29T13:10:56.493Z,101564.31
2023-01-29T13:13:32.451Z,101567.69
2023-01-29T13:16:01.172Z,101563.13
2023-01-29T13:18:37.576Z,101557.94
2023-01-29T13:21:05.428Z,101553.13
2023-01-29T13:23:36.164Z,101543.59
2023-01-29T13:26:03.952Z,101540.81
2023-01-29T13:28:31.588Z,101537.28
2023-01-29T13:31:17.533Z,101535.78
2023-01-29T13:33:52.582Z,101539.50
2023-01-29T13:36:23.765Z,101538.50
2023-01-29T13:39:02.430Z,101534.22
2023-01-29T13:41:37.689Z,101539.16
2023-01-29T13:44:07.559Z,101535.81
2023-01-29T13:46:39.789Z,101535.81
2023-01-29T13:49:22.396Z,101533.31
2023-01-29T13:51:49.564Z,101529.56
2023-01-29T13:54:20.900Z,101535.50
2023-01-29T13:56:54.118Z,101529.47
2023-01-29T13:59:44.253Z,101529.03
2023-01-29T14:02:28.461Z,101531.66
2023-01-29T14:05:14.638Z,101525.31
2023-01-29T14:07:44.847Z,101530.56
2023-01-29T14:10:15.039Z,101518.56
2023-01-29T14:12:42.941Z,101520.34
2023-01-29T14:15:21.334Z,101521.94
2023-01-29T14:17:56.679Z,101517.75
2023-01-29T14:20:32.364Z,101523.03
2023-01-29T14:23:06.459Z,101518.00
2023-01-29T14:25:38.455Z,101510.16
2023-01-29T14:28:13.750Z,101505.19
2023-01-29T14:30:46.882Z,101501.56
2023-01-29T14:33:25.371Z,101499.88
2023-01-29T14:35:53.135Z,101502.63
2023-01-29T14:38:23.199Z,101508.69
2023-01-29T14:40:50.960Z,101508.78
2023-01-29T14:43:21.796Z,101511.28
2023-01-29T14:45:49.421Z,101512.97
2023-01-29T14:48:35.074Z,101515.47
2023-01-29T14:51:10.876Z,101515.72
2023-01-29T14:53:41.217Z,101514.94
2023-01-29T14:56:21.440Z,101508.06
2023-01-29T14:58:56.308Z,101525.44
2023-01-29T15:01:38.291Z,101518.31
2023-01-29T15:04:15.939Z,101522.88
2023-01-29T15:06:53.812Z,101515.94
2023-01-29T15:09:36.782Z,101518.69
2023-01-29T15:12:23.212Z,101519.66
2023-01-29T15:15:07.667Z,101519.59
2023-01-29T15:17:57.923Z,101509.19
2023-01-29T15:20:37.616Z,101509.19
2023-01-29T15:23:24.732Z,101504.19
2023-01-29T15:25:56.547Z,101505.97
2023-01-29T15:28:24.387Z,101501.66
2023-01-29T15:30:56.960Z,101507.69
2023-01-29T15:33:24.986Z,101510.16
2023-01-29T15:36:08.064Z,101511.19
2023-01-29T15:38:36.404Z,101513.00
2023-01-29T15:41:17.264Z,101521.66
2023-01-29T15:44:05.844Z,101523.34
2023-01-29T15:46:39.541Z,101523.38
2023-01-29T15:49:16.430Z,101516.44
2023-01-29T15:51:43.769Z,101531.97
2023-01-29T15:54:15.891Z,101528.72
2023-01-29T15:56:54.156Z,101527.00
2023-01-29T15:59:27.279Z,101527.16
2023-01-29T16:01:54.951Z,101522.69
2023-01-29T16:04:26.945Z,101526.06
2023-01-29T16:06:56.294Z,101530.63
2023-01-29T16:09:26.137Z,101525.56
2023-01-29T16:11:57.380Z,101525.47
2023-01-29T16:14:25.755Z,101534.19
2023-01-29T16:16:54.055Z,101529.13
2023-01-29T16:19:26.520Z,101532.63
2023-01-29T16:22:00.207Z,101526.53
2023-01-29T16:24:29.428Z,101530.84
2023-01-29T16:27:00.038Z,101524.03
2023-01-29T16:29:32.862Z,101524.03
2023-01-29T16:32:02.531Z,101515.50
2023-01-29T16:34:37.969Z,101518.19
2023-01-29T16:37:17.618Z,101520.84
2023-01-29T16:39:47.720Z,101513.97
2023-01-29T16:42:19.987Z,101515.66
2023-01-29T16:44:51.651Z,101520.84
2023-01-29T16:47:24.533Z,101536.38
2023-01-29T16:49:55.444Z,101524.31
2023-01-29T16:52:31.789Z,101536.47
2023-01-29T16:55:21.200Z,101529.78
2023-01-29T16:57:55.995Z,101533.31
2023-01-29T17:00:27.196Z,101551.53
2023-01-29T17:03:00.341Z,101544.72
2023-01-29T17:05:30.532Z,101547.28
2023-01-29T17:07:58.610Z,101540.44
2023-01-29T17:10:28.393Z,101542.22
2023-01-29T17:12:59.796Z,101537.09
2023-01-29T17:15:31.811Z,101547.41
2023-01-29T17:17:59.303Z,101541.34
2023-01-29T17:20:27.799Z,101546.56
2023-01-29T17:22:55.208Z,101544.88
2023-01-29T17:25:23.498Z,101544.03
2023-01-29T17:27:53.679Z,101541.47
2023-01-29T17:30:23.722Z,101551.81
2023-01-29T17:32:51.076Z,101561.25
2023-01-29T17:35:21.453Z,101554.44
2023-01-29T17:37:48.852Z,101557.88
2023-01-29T17:40:18.474Z,101561.28
2023-01-29T17:42:46.977Z,101561.28
2023-01-29T17:45:14.495Z,101564.72
2023-01-29T17:47:41.951Z,101566.44
2023-01-29T17:50:18.944Z,101561.28
2023-01-29T17:52:46.238Z,101560.44
2023-01-29T17:55:13.473Z,101566.44
2023-01-29T17:57:40.873Z,101556.16
2023-01-29T18:00:22.522Z,101561.28
2023-01-29T18:02:50.030Z,101557.88
2023-01-29T18:05:19.280Z,101557.88
2023-01-29T18:07:47.963Z,101553.59
2023-01-29T18:10:21.077Z,101551.88
2023-01-29T18:12:48.465Z,101551.88
2023-01-29T18:15:16.292Z,101557.00
2023-01-29T18:17:44.061Z,101551.88
2023-01-29T18:20:25.624Z,101560.44
2023-01-29T18:22:53.363Z,101557.84
2023-01-29T18:25:20.866Z,101551.81
2023-01-29T18:27:48.587Z,101551.81
2023-01-29T18:30:16.139Z,101552.59
2023-01-29T18:32:43.521Z,101551.75
2023-01-29T18:35:10.958Z,101544.88
2023-01-29T18:37:38.181Z,101544.00
2023-01-29T18:40:05.978Z,101549.97
2023-01-29T18:42:33.702Z,101547.41
2023-01-29T18:45:00.931Z,101549.06
2023-01-29T18:47:28.258Z,101555.00
2023-01-29T18:49:55.601Z,101554.13
2023-01-29T18:52:23.014Z,101549.00
2023-01-29T18:54:50.259Z,101547.28
2023-01-29T18:58:34.908Z,101555.00
2023-01-29T19:00:05.306Z,101552.38
2023-01-29T19:02:33.000Z,101552.34
2023-01-29T19:05:00.261Z,101552.34
2023-01-29T19:07:27.799Z,101550.63
2023-01-29T19:09:55.234Z,101544.66
2023-01-29T19:12:22.908Z,101557.47
2023-01-29T19:14:50.134Z,101547.19
2023-01-29T19:17:17.405Z,101541.06
2023-01-29T19:19:44.730Z,101543.59
2023-01-29T19:22:11.934Z,101554.66
2023-01-29T19:24:39.353Z,101552.03
2023-01-29T19:27:06.657Z,101548.63
2023-01-29T19:29:34.072Z,101546.88
2023-01-29T19:32:01.428Z,101554.59
2023-01-29T19:34:28.876Z,101553.69
2023-01-29T19:36:56.171Z,101548.50
2023-01-29T19:39:23.619Z,101557.09
2023-01-29T19:41:50.761Z,101546.84
2023-01-29T19:44:17.744Z,101555.38
2023-01-29T19:46:46.712Z,101551.81
2023-01-29T19:49:13.970Z,101551.84
2023-01-29T19:51:41.450Z,101554.41
2023-01-29T19:54:08.945Z,101558.72
2023-01-29T19:56:36.599Z,101558.72
2023-01-29T19:59:05.222Z,101550.19
2023-01-29T20:01:32.493Z,101547.56
2023-01-29T20:04:00.053Z,101545.00
2023-01-29T20:06:28.784Z,101552.75
2023-01-29T20:08:56.465Z,101549.97
2023-01-29T20:11:24.486Z,101541.47
2023-01-29T20:13:52.916Z,101546.56
2023-01-29T20:16:20.425Z,101546.53
2023-01-29T20:18:47.965Z,101553.28
2023-01-29T20:21:18.089Z,101548.13
2023-01-29T20:23:46.171Z,101550.63
2023-01-29T20:26:15.168Z,101548.22
2023-01-29T20:28:43.542Z,101555.06
2023-01-29T20:31:11.108Z,101548.19
2023-01-29T20:33:39.638Z,101551.47
2023-01-29T20:36:09.522Z,101551.56
2023-01-29T20:38:37.715Z,101549.09
2023-01-29T20:41:06.316Z,101554.88
2023-01-29T20:43:35.290Z,101553.13
2023-01-29T20:46:02.516Z,101553.19
2023-01-29T20:48:31.378Z,101549.66
2023-01-29T20:51:06.892Z,101547.88
2023-01-29T20:53:34.482Z,101553.00
2023-01-29T20:56:04.320Z,101546.19
2023-01-29T20:58:32.078Z,101551.31
2023-01-29T21:01:00.070Z,101556.31
2023-01-29T21:03:27.533Z,101553.75
2023-01-29T21:05:57.895Z,101556.31
2023-01-29T21:08:25.639Z,101546.88
2023-01-29T21:10:53.590Z,101552.00
2023-01-29T21:13:21.474Z,101549.44
2023-01-29T21:15:51.684Z,101551.19
2023-01-29T21:18:19.441Z,101548.63
2023-01-29T21:20:46.859Z,101551.19
2023-01-29T21:23:14.240Z,101545.03
2023-01-29T21:25:41.816Z,101542.44
2023-01-29T21:28:10.532Z,101535.66
2023-01-29T21:30:39.253Z,101543.34
2023-01-29T21:33:07.232Z,101546.69
2023-01-29T21:35:37.679Z,101544.09
2023-01-29T21:38:05.265Z,101533.78
2023-01-29T21:40:32.959Z,101549.88
2023-01-29T21:43:12.363Z,101543.97
2023-01-29T21:45:40.363Z,101545.63
2023-01-29T21:48:09.131Z,101540.44
2023-01-29T21:50:36.444Z,101545.53
2023-01-29T21:53:03.697Z,101543.78
2023-01-29T21:55:30.805Z,101547.13
2023-01-29T21:57:58.734Z,101547.94
2023-01-29T22:00:25.838Z,101552.34
2023-01-29T22:02:53.436Z,101544.59
2023-01-29T22:05:20.688Z,101536.75
2023-01-29T22:07:48.443Z,101541.03
2023-01-29T22:10:17.188Z,101545.34
2023-01-29T22:12:44.971Z,101543.66
2023-01-29T22:15:12.566Z,101544.56
2023-01-29T22:17:41.451Z,101547.94
2023-01-29T22:20:09.524Z,101547.00
2023-01-29T22:22:36.526Z,101537.78
2023-01-29T22:25:03.962Z,101538.50
2023-01-29T22:27:34.237Z,101540.97
2023-01-29T22:30:01.339Z,101540.97
2023-01-29T22:32:28.504Z,101528.84
2023-01-29T22:34:55.621Z,101526.31
2023-01-29T22:37:22.652Z,101530.50
2023-01-29T22:39:49.716Z,101521.13
2023-01-29T22:42:18.380Z,101522.72
2023-01-29T22:44:45.555Z,101520.09
2023-01-29T22:47:12.635Z,101521.88
2023-01-29T22:49:39.893Z,101512.44
2023-01-29T22:52:10.184Z,101521.09
2023-01-29T22:54:38.402Z,101511.69
2023-01-29T22:57:06.097Z,101511.66
2023-01-29T22:59:33.639Z,101513.38
2023-01-29T23:02:00.691Z,101509.31
2023-01-29T23:04:27.887Z,101505.97
2023-01-29T23:06:54.932Z,101511.81
2023-01-29T23:09:22.094Z,101513.34
2023-01-29T23:11:49.176Z,101505.66
2023-01-29T23:14:16.640Z,101504.72
2023-01-29T23:16:43.608Z,101506.69
2023-01-29T23:19:12.042Z,101491.97
2023-01-29T23:21:39.794Z,101503.81
2023-01-29T23:24:08.065Z,101502.16
2023-01-29T23:26:53.800Z,101493.66
2023-01-29T23:29:20.968Z,101502.09
2023-01-29T23:31:48.085Z,101501.25
2023-01-29T23:34:15.546Z,101502.84
2023-01-29T23:36:42.760Z,101498.50
2023-01-29T23:39:09.797Z,101498.41
2023-01-29T23:41:36.876Z,101505.16
2023-01-29T23:44:04.481Z,101494.16
2023-01-29T23:46:31.734Z,101508.66
2023-01-29T23:48:58.985Z,101505.50
2023-01-29T23:51:26.184Z,101488.38
2023-01-29T23:53:53.378Z,101497.81
2023-01-29T23:56:20.728Z,101492.53
2023-01-29T23:58:47.777Z,101493.31
